sensor_id;sensor_type;location;lat;lon;timestamp;P1;durP1;ratioP1;P2;durP2;ratioP2
10412;SDS011;5252;42.602;23.386;2022-09-09T00:01:47;12.70;;;11.50;;
10412;SDS011;5252;42.602;23.386;2022-09-09T00:04:18;12.38;;;11.18;;
10412;SDS011;5252;42.602;23.386;2022-09-09T00:06:50;11.82;;;10.82;;
10412;SDS011;5252;42.602;23.386;2022-09-09T00:09:21;13.02;;;11.73;;
10412;SDS011;5252;42.602;23.386;2022-09-09T00:11:48;11.45;;;10.45;;
10412;SDS011;5252;42.602;23.386;2022-09-09T00:14:18;11.30;;;10.20;;
10412;SDS011;5252;42.602;23.386;2022-09-09T00:16:49;11.45;;;10.27;;
10412;SDS011;5252;42.602;23.386;2022-09-09T00:19:18;11.40;;;10.38;;
10412;SDS011;5252;42.602;23.386;2022-09-09T00:21:47;10.23;;;9.38;;
10412;SDS011;5252;42.602;23.386;2022-09-09T00:24:18;10.95;;;9.95;;
10412;SDS011;5252;42.602;23.386;2022-09-09T00:26:48;11.18;;;10.18;;
10412;SDS011;5252;42.602;23.386;2022-09-09T00:29:19;10.85;;;9.85;;
10412;SDS011;5252;42.602;23.386;2022-09-09T00:31:50;11.65;;;10.75;;
10412;SDS011;5252;42.602;23.386;2022-09-09T00:34:18;11.50;;;10.50;;
10412;SDS011;5252;42.602;23.386;2022-09-09T00:36:46;11.45;;;10.32;;
10412;SDS011;5252;42.602;23.386;2022-09-09T00:39:25;11.55;;;10.52;;
10412;SDS011;5252;42.602;23.386;2022-09-09T00:41:57;11.77;;;10.70;;
10412;SDS011;5252;42.602;23.386;2022-09-09T00:44:28;11.00;;;9.95;;
10412;SDS011;5252;42.602;23.386;2022-09-09T00:46:59;10.80;;;9.82;;
10412;SDS011;5252;42.602;23.386;2022-09-09T00:49:34;10.02;;;9.23;;
10412;SDS011;5252;42.602;23.386;2022-09-09T00:52:05;10.85;;;9.93;;
10412;SDS011;5252;42.602;23.386;2022-09-09T00:54:37;10.77;;;9.70;;
10412;SDS011;5252;42.602;23.386;2022-09-09T00:57:10;10.85;;;9.85;;
10412;SDS011;5252;42.602;23.386;2022-09-09T00:59:41;10.20;;;9.40;;
10412;SDS011;5252;42.602;23.386;2022-09-09T01:02:13;10.52;;;9.35;;
10412;SDS011;5252;42.602;23.386;2022-09-09T01:04:42;9.82;;;8.82;;
10412;SDS011;5252;42.602;23.386;2022-09-09T01:07:11;10.15;;;9.25;;
10412;SDS011;5252;42.602;23.386;2022-09-09T01:09:42;10.65;;;9.63;;
10412;SDS011;5252;42.602;23.386;2022-09-09T01:12:15;10.45;;;9.50;;
10412;SDS011;5252;42.602;23.386;2022-09-09T01:14:43;11.05;;;9.93;;
10412;SDS011;5252;42.602;23.386;2022-09-09T01:17:14;10.23;;;9.20;;
10412;SDS011;5252;42.602;23.386;2022-09-09T01:19:45;10.98;;;10.00;;
10412;SDS011;5252;42.602;23.386;2022-09-09T01:22:15;10.77;;;9.77;;
10412;SDS011;5252;42.602;23.386;2022-09-09T01:24:50;10.75;;;9.80;;
10412;SDS011;5252;42.602;23.386;2022-09-09T01:27:21;10.70;;;9.65;;
10412;SDS011;5252;42.602;23.386;2022-09-09T01:29:50;9.80;;;8.90;;
10412;SDS011;5252;42.602;23.386;2022-09-09T01:35:01;10.30;;;9.25;;
10412;SDS011;5252;42.602;23.386;2022-09-09T01:37:28;10.30;;;9.32;;
10412;SDS011;5252;42.602;23.386;2022-09-09T01:39:55;9.98;;;9.07;;
10412;SDS011;5252;42.602;23.386;2022-09-09T01:42:22;9.98;;;9.15;;
10412;SDS011;5252;42.602;23.386;2022-09-09T01:44:49;10.48;;;9.48;;
10412;SDS011;5252;42.602;23.386;2022-09-09T01:47:16;10.88;;;9.75;;
10412;SDS011;5252;42.602;23.386;2022-09-09T01:49:42;10.85;;;9.90;;
10412;SDS011;5252;42.602;23.386;2022-09-09T01:52:09;10.48;;;9.48;;
10412;SDS011;5252;42.602;23.386;2022-09-09T01:54:35;10.55;;;9.52;;
10412;SDS011;5252;42.602;23.386;2022-09-09T01:57:04;10.57;;;9.68;;
10412;SDS011;5252;42.602;23.386;2022-09-09T01:59:44;11.20;;;10.20;;
10412;SDS011;5252;42.602;23.386;2022-09-09T02:02:15;11.52;;;10.38;;
10412;SDS011;5252;42.602;23.386;2022-09-09T02:04:43;12.10;;;11.10;;
10412;SDS011;5252;42.602;23.386;2022-09-09T02:07:15;10.70;;;9.80;;
10412;SDS011;5252;42.602;23.386;2022-09-09T02:09:47;11.55;;;10.65;;
10412;SDS011;5252;42.602;23.386;2022-09-09T02:12:16;12.20;;;11.20;;
10412;SDS011;5252;42.602;23.386;2022-09-09T02:14:47;12.00;;;10.90;;
10412;SDS011;5252;42.602;23.386;2022-09-09T02:17:16;12.73;;;11.52;;
10412;SDS011;5252;42.602;23.386;2022-09-09T02:19:45;12.40;;;11.30;;
10412;SDS011;5252;42.602;23.386;2022-09-09T02:22:14;12.70;;;11.60;;
10412;SDS011;5252;42.602;23.386;2022-09-09T02:24:42;12.20;;;11.20;;
10412;SDS011;5252;42.602;23.386;2022-09-09T02:27:09;12.77;;;11.63;;
10412;SDS011;5252;42.602;23.386;2022-09-09T02:29:38;13.23;;;12.13;;
10412;SDS011;5252;42.602;23.386;2022-09-09T02:32:08;13.30;;;12.10;;
10412;SDS011;5252;42.602;23.386;2022-09-09T02:34:36;13.63;;;12.38;;
10412;SDS011;5252;42.602;23.386;2022-09-09T02:37:04;13.93;;;12.63;;
10412;SDS011;5252;42.602;23.386;2022-09-09T02:39:33;13.98;;;12.68;;
10412;SDS011;5252;42.602;23.386;2022-09-09T02:41:59;14.15;;;12.90;;
10412;SDS011;5252;42.602;23.386;2022-09-09T02:44:29;13.82;;;12.70;;
10412;SDS011;5252;42.602;23.386;2022-09-09T02:47:06;13.55;;;12.25;;
10412;SDS011;5252;42.602;23.386;2022-09-09T02:49:38;14.57;;;13.27;;
10412;SDS011;5252;42.602;23.386;2022-09-09T02:52:07;13.13;;;12.05;;
10412;SDS011;5252;42.602;23.386;2022-09-09T02:54:34;15.05;;;13.55;;
10412;SDS011;5252;42.602;23.386;2022-09-09T02:57:02;14.23;;;12.82;;
10412;SDS011;5252;42.602;23.386;2022-09-09T02:59:30;12.95;;;11.85;;
10412;SDS011;5252;42.602;23.386;2022-09-09T03:01:56;13.13;;;11.98;;
10412;SDS011;5252;42.602;23.386;2022-09-09T03:04:23;12.98;;;11.88;;
10412;SDS011;5252;42.602;23.386;2022-09-09T03:06:51;13.27;;;12.07;;
10412;SDS011;5252;42.602;23.386;2022-09-09T03:09:18;13.77;;;12.52;;
10412;SDS011;5252;42.602;23.386;2022-09-09T03:11:44;13.35;;;12.25;;
10412;SDS011;5252;42.602;23.386;2022-09-09T03:14:11;12.98;;;11.90;;
10412;SDS011;5252;42.602;23.386;2022-09-09T03:16:37;13.65;;;12.55;;
10412;SDS011;5252;42.602;23.386;2022-09-09T03:19:04;14.88;;;13.23;;
10412;SDS011;5252;42.602;23.386;2022-09-09T03:21:31;14.27;;;12.90;;
10412;SDS011;5252;42.602;23.386;2022-09-09T03:23:59;13.98;;;12.63;;
10412;SDS011;5252;42.602;23.386;2022-09-09T03:26:28;13.98;;;12.88;;
10412;SDS011;5252;42.602;23.386;2022-09-09T03:28:55;16.05;;;14.40;;
10412;SDS011;5252;42.602;23.386;2022-09-09T03:31:21;15.82;;;14.32;;
10412;SDS011;5252;42.602;23.386;2022-09-09T03:33:48;15.73;;;14.43;;
10412;SDS011;5252;42.602;23.386;2022-09-09T03:36:14;15.57;;;14.20;;
10412;SDS011;5252;42.602;23.386;2022-09-09T03:38:41;16.75;;;15.07;;
10412;SDS011;5252;42.602;23.386;2022-09-09T03:41:08;15.05;;;13.75;;
10412;SDS011;5252;42.602;23.386;2022-09-09T03:43:35;14.80;;;13.60;;
10412;SDS011;5252;42.602;23.386;2022-09-09T03:46:02;15.32;;;14.02;;
10412;SDS011;5252;42.602;23.386;2022-09-09T03:48:29;15.43;;;14.13;;
10412;SDS011;5252;42.602;23.386;2022-09-09T03:50:55;17.02;;;15.45;;
10412;SDS011;5252;42.602;23.386;2022-09-09T03:53:23;16.52;;;15.02;;
10412;SDS011;5252;42.602;23.386;2022-09-09T03:55:51;17.23;;;15.82;;
10412;SDS011;5252;42.602;23.386;2022-09-09T03:58:21;17.00;;;15.50;;
10412;SDS011;5252;42.602;23.386;2022-09-09T04:00:58;17.83;;;16.13;;
10412;SDS011;5252;42.602;23.386;2022-09-09T04:03:25;16.58;;;15.18;;
10412;SDS011;5252;42.602;23.386;2022-09-09T04:05:51;15.85;;;14.40;;
10412;SDS011;5252;42.602;23.386;2022-09-09T04:08:18;17.50;;;16.00;;
10412;SDS011;5252;42.602;23.386;2022-09-09T04:10:45;16.48;;;15.18;;
10412;SDS011;5252;42.602;23.386;2022-09-09T04:13:12;15.90;;;14.50;;
10412;SDS011;5252;42.602;23.386;2022-09-09T04:15:42;16.90;;;15.30;;
10412;SDS011;5252;42.602;23.386;2022-09-09T04:18:09;16.73;;;15.15;;
10412;SDS011;5252;42.602;23.386;2022-09-09T04:20:36;16.15;;;14.75;;
10412;SDS011;5252;42.602;23.386;2022-09-09T04:23:03;16.73;;;15.13;;
10412;SDS011;5252;42.602;23.386;2022-09-09T04:25:30;16.92;;;15.43;;
10412;SDS011;5252;42.602;23.386;2022-09-09T04:27:57;14.80;;;13.60;;
10412;SDS011;5252;42.602;23.386;2022-09-09T04:30:24;15.55;;;14.27;;
10412;SDS011;5252;42.602;23.386;2022-09-09T04:32:53;15.88;;;14.48;;
10412;SDS011;5252;42.602;23.386;2022-09-09T04:35:20;13.48;;;12.43;;
10412;SDS011;5252;42.602;23.386;2022-09-09T04:37:46;14.93;;;13.63;;
10412;SDS011;5252;42.602;23.386;2022-09-09T04:40:13;13.85;;;12.75;;
10412;SDS011;5252;42.602;23.386;2022-09-09T04:42:40;14.25;;;12.82;;
10412;SDS011;5252;42.602;23.386;2022-09-09T04:45:09;14.07;;;12.77;;
10412;SDS011;5252;42.602;23.386;2022-09-09T04:47:36;13.90;;;12.60;;
10412;SDS011;5252;42.602;23.386;2022-09-09T04:50:05;14.15;;;12.80;;
10412;SDS011;5252;42.602;23.386;2022-09-09T04:52:33;13.68;;;12.48;;
10412;SDS011;5252;42.602;23.386;2022-09-09T04:54:59;14.80;;;13.35;;
10412;SDS011;5252;42.602;23.386;2022-09-09T04:57:26;14.25;;;13.05;;
10412;SDS011;5252;42.602;23.386;2022-09-09T04:59:53;15.20;;;12.85;;
10412;SDS011;5252;42.602;23.386;2022-09-09T05:02:20;13.52;;;12.38;;
10412;SDS011;5252;42.602;23.386;2022-09-09T05:04:46;13.95;;;12.68;;
10412;SDS011;5252;42.602;23.386;2022-09-09T05:07:15;13.30;;;12.20;;
10412;SDS011;5252;42.602;23.386;2022-09-09T05:09:42;12.02;;;11.02;;
10412;SDS011;5252;42.602;23.386;2022-09-09T05:12:09;12.05;;;10.82;;
10412;SDS011;5252;42.602;23.386;2022-09-09T05:14:36;10.73;;;9.82;;
10412;SDS011;5252;42.602;23.386;2022-09-09T05:17:02;9.88;;;8.98;;
10412;SDS011;5252;42.602;23.386;2022-09-09T05:19:29;10.07;;;9.15;;
10412;SDS011;5252;42.602;23.386;2022-09-09T05:21:56;9.80;;;8.90;;
10412;SDS011;5252;42.602;23.386;2022-09-09T05:24:24;9.15;;;8.25;;
10412;SDS011;5252;42.602;23.386;2022-09-09T05:26:50;8.52;;;7.82;;
10412;SDS011;5252;42.602;23.386;2022-09-09T05:29:17;9.32;;;8.43;;
10412;SDS011;5252;42.602;23.386;2022-09-09T05:31:44;8.98;;;8.05;;
10412;SDS011;5252;42.602;23.386;2022-09-09T05:34:12;8.60;;;7.72;;
10412;SDS011;5252;42.602;23.386;2022-09-09T05:36:38;8.20;;;7.20;;
10412;SDS011;5252;42.602;23.386;2022-09-09T05:39:05;8.10;;;7.40;;
10412;SDS011;5252;42.602;23.386;2022-09-09T05:41:33;7.65;;;6.90;;
10412;SDS011;5252;42.602;23.386;2022-09-09T05:44:00;7.82;;;6.88;;
10412;SDS011;5252;42.602;23.386;2022-09-09T05:46:27;7.38;;;6.30;;
10412;SDS011;5252;42.602;23.386;2022-09-09T05:48:53;6.40;;;5.65;;
10412;SDS011;5252;42.602;23.386;2022-09-09T05:51:20;6.60;;;6.10;;
10412;SDS011;5252;42.602;23.386;2022-09-09T05:53:47;6.10;;;5.60;;
10412;SDS011;5252;42.602;23.386;2022-09-09T05:56:15;6.35;;;5.75;;
10412;SDS011;5252;42.602;23.386;2022-09-09T05:58:44;6.85;;;6.25;;
10412;SDS011;5252;42.602;23.386;2022-09-09T06:01:12;7.22;;;6.53;;
10412;SDS011;5252;42.602;23.386;2022-09-09T06:03:40;7.30;;;6.60;;
10412;SDS011;5252;42.602;23.386;2022-09-09T06:06:07;7.78;;;6.97;;
10412;SDS011;5252;42.602;23.386;2022-09-09T06:08:35;6.88;;;6.15;;
10412;SDS011;5252;42.602;23.386;2022-09-09T06:11:02;6.53;;;5.93;;
10412;SDS011;5252;42.602;23.386;2022-09-09T06:13:29;6.88;;;6.18;;
10412;SDS011;5252;42.602;23.386;2022-09-09T06:15:57;7.80;;;5.72;;
10412;SDS011;5252;42.602;23.386;2022-09-09T06:18:23;6.95;;;6.28;;
10412;SDS011;5252;42.602;23.386;2022-09-09T06:20:54;6.40;;;5.88;;
10412;SDS011;5252;42.602;23.386;2022-09-09T06:23:20;7.00;;;5.80;;
10412;SDS011;5252;42.602;23.386;2022-09-09T06:25:47;9.30;;;5.53;;
10412;SDS011;5252;42.602;23.386;2022-09-09T06:28:14;7.28;;;6.57;;
10412;SDS011;5252;42.602;23.386;2022-09-09T06:30:40;6.97;;;6.25;;
10412;SDS011;5252;42.602;23.386;2022-09-09T06:33:08;6.78;;;6.18;;
10412;SDS011;5252;42.602;23.386;2022-09-09T06:35:35;6.32;;;5.60;;
10412;SDS011;5252;42.602;23.386;2022-09-09T06:38:02;7.03;;;6.20;;
10412;SDS011;5252;42.602;23.386;2022-09-09T06:40:28;6.35;;;5.80;;
10412;SDS011;5252;42.602;23.386;2022-09-09T06:42:58;6.57;;;5.75;;
10412;SDS011;5252;42.602;23.386;2022-09-09T06:45:25;7.30;;;5.65;;
10412;SDS011;5252;42.602;23.386;2022-09-09T06:47:54;6.47;;;5.80;;
10412;SDS011;5252;42.602;23.386;2022-09-09T06:50:22;6.93;;;6.07;;
10412;SDS011;5252;42.602;23.386;2022-09-09T06:52:48;8.20;;;5.72;;
10412;SDS011;5252;42.602;23.386;2022-09-09T06:55:15;7.50;;;5.82;;
10412;SDS011;5252;42.602;23.386;2022-09-09T06:57:43;7.60;;;5.75;;
10412;SDS011;5252;42.602;23.386;2022-09-09T07:00:10;8.30;;;6.00;;
10412;SDS011;5252;42.602;23.386;2022-09-09T07:02:39;6.35;;;5.60;;
10412;SDS011;5252;42.602;23.386;2022-09-09T07:05:06;6.13;;;5.63;;
10412;SDS011;5252;42.602;23.386;2022-09-09T07:07:34;6.88;;;5.50;;
10412;SDS011;5252;42.602;23.386;2022-09-09T07:10:02;11.57;;;6.28;;
10412;SDS011;5252;42.602;23.386;2022-09-09T07:12:29;6.90;;;6.07;;
10412;SDS011;5252;42.602;23.386;2022-09-09T07:14:55;7.38;;;5.20;;
10412;SDS011;5252;42.602;23.386;2022-09-09T07:17:22;6.82;;;5.65;;
10412;SDS011;5252;42.602;23.386;2022-09-09T07:19:48;6.70;;;6.00;;
10412;SDS011;5252;42.602;23.386;2022-09-09T07:22:15;6.78;;;5.90;;
10412;SDS011;5252;42.602;23.386;2022-09-09T07:24:43;6.25;;;5.35;;
10412;SDS011;5252;42.602;23.386;2022-09-09T07:27:10;5.72;;;5.10;;
10412;SDS011;5252;42.602;23.386;2022-09-09T07:29:36;9.85;;;6.03;;
10412;SDS011;5252;42.602;23.386;2022-09-09T07:32:03;9.95;;;5.50;;
10412;SDS011;5252;42.602;23.386;2022-09-09T07:34:29;6.07;;;5.35;;
10412;SDS011;5252;42.602;23.386;2022-09-09T07:36:56;8.13;;;5.47;;
10412;SDS011;5252;42.602;23.386;2022-09-09T07:39:23;8.13;;;5.38;;
10412;SDS011;5252;42.602;23.386;2022-09-09T07:41:51;9.35;;;5.82;;
10412;SDS011;5252;42.602;23.386;2022-09-09T07:44:20;6.03;;;5.40;;
10412;SDS011;5252;42.602;23.386;2022-09-09T07:46:47;7.22;;;5.32;;
10412;SDS011;5252;42.602;23.386;2022-09-09T07:49:14;7.28;;;5.35;;
10412;SDS011;5252;42.602;23.386;2022-09-09T07:51:41;6.40;;;5.50;;
10412;SDS011;5252;42.602;23.386;2022-09-09T07:54:08;7.20;;;5.45;;
10412;SDS011;5252;42.602;23.386;2022-09-09T07:56:36;6.60;;;5.57;;
10412;SDS011;5252;42.602;23.386;2022-09-09T07:59:04;6.75;;;5.03;;
10412;SDS011;5252;42.602;23.386;2022-09-09T08:01:31;6.90;;;5.35;;
10412;SDS011;5252;42.602;23.386;2022-09-09T08:03:59;7.68;;;5.38;;
10412;SDS011;5252;42.602;23.386;2022-09-09T08:06:26;8.38;;;5.75;;
10412;SDS011;5252;42.602;23.386;2022-09-09T08:08:53;7.25;;;6.00;;
10412;SDS011;5252;42.602;23.386;2022-09-09T08:11:20;6.82;;;5.07;;
10412;SDS011;5252;42.602;23.386;2022-09-09T08:13:48;7.45;;;4.97;;
10412;SDS011;5252;42.602;23.386;2022-09-09T08:16:17;6.28;;;5.05;;
10412;SDS011;5252;42.602;23.386;2022-09-09T08:18:43;7.13;;;5.13;;
10412;SDS011;5252;42.602;23.386;2022-09-09T08:21:11;7.05;;;5.00;;
10412;SDS011;5252;42.602;23.386;2022-09-09T08:23:39;7.85;;;5.43;;
10412;SDS011;5252;42.602;23.386;2022-09-09T08:26:06;8.55;;;5.38;;
10412;SDS011;5252;42.602;23.386;2022-09-09T08:28:34;6.65;;;5.18;;
10412;SDS011;5252;42.602;23.386;2022-09-09T08:31:08;7.53;;;5.28;;
10412;SDS011;5252;42.602;23.386;2022-09-09T08:33:36;12.68;;;5.30;;
10412;SDS011;5252;42.602;23.386;2022-09-09T08:36:04;8.07;;;5.60;;
10412;SDS011;5252;42.602;23.386;2022-09-09T08:38:30;6.80;;;6.00;;
10412;SDS011;5252;42.602;23.386;2022-09-09T08:40:59;6.72;;;5.10;;
10412;SDS011;5252;42.602;23.386;2022-09-09T08:43:27;7.43;;;5.25;;
10412;SDS011;5252;42.602;23.386;2022-09-09T08:45:55;6.05;;;5.30;;
10412;SDS011;5252;42.602;23.386;2022-09-09T08:48:31;6.50;;;5.30;;
10412;SDS011;5252;42.602;23.386;2022-09-09T08:51:04;7.97;;;5.45;;
10412;SDS011;5252;42.602;23.386;2022-09-09T08:53:34;9.18;;;5.50;;
10412;SDS011;5252;42.602;23.386;2022-09-09T08:56:06;8.02;;;5.78;;
10412;SDS011;5252;42.602;23.386;2022-09-09T08:58:38;7.45;;;4.88;;
10412;SDS011;5252;42.602;23.386;2022-09-09T09:01:12;5.30;;;4.78;;
10412;SDS011;5252;42.602;23.386;2022-09-09T09:03:47;7.30;;;4.78;;
10412;SDS011;5252;42.602;23.386;2022-09-09T09:06:21;9.18;;;5.43;;
10412;SDS011;5252;42.602;23.386;2022-09-09T09:08:54;8.15;;;4.93;;
10412;SDS011;5252;42.602;23.386;2022-09-09T09:11:23;5.80;;;5.05;;
10412;SDS011;5252;42.602;23.386;2022-09-09T09:13:51;6.50;;;5.20;;
10412;SDS011;5252;42.602;23.386;2022-09-09T09:16:22;7.93;;;5.20;;
10412;SDS011;5252;42.602;23.386;2022-09-09T09:18:49;9.20;;;5.30;;
10412;SDS011;5252;42.602;23.386;2022-09-09T09:21:17;9.23;;;5.25;;
10412;SDS011;5252;42.602;23.386;2022-09-09T09:23:51;6.50;;;4.78;;
10412;SDS011;5252;42.602;23.386;2022-09-09T09:26:20;6.28;;;5.22;;
10412;SDS011;5252;42.602;23.386;2022-09-09T09:28:51;5.97;;;4.65;;
10412;SDS011;5252;42.602;23.386;2022-09-09T09:31:21;7.85;;;4.90;;
10412;SDS011;5252;42.602;23.386;2022-09-09T09:33:49;6.72;;;5.25;;
10412;SDS011;5252;42.602;23.386;2022-09-09T09:36:18;6.10;;;4.78;;
10412;SDS011;5252;42.602;23.386;2022-09-09T09:38:52;7.03;;;4.38;;
10412;SDS011;5252;42.602;23.386;2022-09-09T09:41:28;5.88;;;4.57;;
10412;SDS011;5252;42.602;23.386;2022-09-09T09:43:55;5.22;;;4.65;;
10412;SDS011;5252;42.602;23.386;2022-09-09T09:46:22;6.40;;;5.00;;
10412;SDS011;5252;42.602;23.386;2022-09-09T09:48:56;6.07;;;4.90;;
10412;SDS011;5252;42.602;23.386;2022-09-09T09:51:22;8.52;;;5.43;;
10412;SDS011;5252;42.602;23.386;2022-09-09T09:53:49;6.55;;;4.78;;
10412;SDS011;5252;42.602;23.386;2022-09-09T09:56:25;6.50;;;5.22;;
10412;SDS011;5252;42.602;23.386;2022-09-09T09:58:52;6.75;;;4.90;;
10412;SDS011;5252;42.602;23.386;2022-09-09T10:01:20;5.68;;;4.75;;
10412;SDS011;5252;42.602;23.386;2022-09-09T10:03:50;10.27;;;4.93;;
10412;SDS011;5252;42.602;23.386;2022-09-09T10:06:17;7.10;;;4.80;;
10412;SDS011;5252;42.602;23.386;2022-09-09T10:08:44;7.32;;;4.95;;
10412;SDS011;5252;42.602;23.386;2022-09-09T10:11:28;25.33;;;5.50;;
10412;SDS011;5252;42.602;23.386;2022-09-09T10:13:59;7.00;;;5.15;;
10412;SDS011;5252;42.602;23.386;2022-09-09T10:16:35;8.73;;;4.82;;
10412;SDS011;5252;42.602;23.386;2022-09-09T10:19:05;6.57;;;4.82;;
10412;SDS011;5252;42.602;23.386;2022-09-09T10:21:47;7.00;;;4.75;;
10412;SDS011;5252;42.602;23.386;2022-09-09T10:24:22;7.03;;;4.90;;
10412;SDS011;5252;42.602;23.386;2022-09-09T10:26:54;10.45;;;4.90;;
10412;SDS011;5252;42.602;23.386;2022-09-09T10:29:32;5.78;;;5.15;;
10412;SDS011;5252;42.602;23.386;2022-09-09T10:32:06;5.40;;;4.63;;
10412;SDS011;5252;42.602;23.386;2022-09-09T10:34:41;8.18;;;4.97;;
10412;SDS011;5252;42.602;23.386;2022-09-09T10:37:16;6.82;;;5.03;;
10412;SDS011;5252;42.602;23.386;2022-09-09T10:39:47;5.95;;;4.97;;
10412;SDS011;5252;42.602;23.386;2022-09-09T10:42:17;7.88;;;4.90;;
10412;SDS011;5252;42.602;23.386;2022-09-09T10:44:50;10.70;;;6.25;;
10412;SDS011;5252;42.602;23.386;2022-09-09T10:47:23;9.27;;;6.60;;
10412;SDS011;5252;42.602;23.386;2022-09-09T10:50:07;13.38;;;8.18;;
10412;SDS011;5252;42.602;23.386;2022-09-09T10:52:38;11.05;;;6.28;;
10412;SDS011;5252;42.602;23.386;2022-09-09T10:55:09;11.07;;;5.90;;
10412;SDS011;5252;42.602;23.386;2022-09-09T10:57:39;14.35;;;5.57;;
10412;SDS011;5252;42.602;23.386;2022-09-09T11:00:10;11.82;;;6.22;;
10412;SDS011;5252;42.602;23.386;2022-09-09T11:02:40;9.15;;;5.30;;
10412;SDS011;5252;42.602;23.386;2022-09-09T11:05:08;10.52;;;4.90;;
10412;SDS011;5252;42.602;23.386;2022-09-09T11:07:37;7.55;;;5.97;;
10412;SDS011;5252;42.602;23.386;2022-09-09T11:10:11;26.92;;;10.95;;
10412;SDS011;5252;42.602;23.386;2022-09-09T11:12:44;13.43;;;6.32;;
10412;SDS011;5252;42.602;23.386;2022-09-09T11:15:14;9.90;;;5.60;;
10412;SDS011;5252;42.602;23.386;2022-09-09T11:17:44;8.73;;;5.55;;
10412;SDS011;5252;42.602;23.386;2022-09-09T11:20:12;8.63;;;5.53;;
10412;SDS011;5252;42.602;23.386;2022-09-09T11:22:40;9.20;;;5.93;;
10412;SDS011;5252;42.602;23.386;2022-09-09T11:25:10;9.02;;;6.10;;
10412;SDS011;5252;42.602;23.386;2022-09-09T11:27:42;15.98;;;5.90;;
10412;SDS011;5252;42.602;23.386;2022-09-09T11:30:21;10.88;;;5.28;;
10412;SDS011;5252;42.602;23.386;2022-09-09T11:33:08;7.65;;;4.90;;
10412;SDS011;5252;42.602;23.386;2022-09-09T11:35:42;7.13;;;5.00;;
10412;SDS011;5252;42.602;23.386;2022-09-09T11:38:15;9.82;;;5.47;;
10412;SDS011;5252;42.602;23.386;2022-09-09T11:40:43;8.02;;;5.80;;
10412;SDS011;5252;42.602;23.386;2022-09-09T11:43:12;7.07;;;5.40;;
10412;SDS011;5252;42.602;23.386;2022-09-09T11:45:40;6.70;;;5.45;;
10412;SDS011;5252;42.602;23.386;2022-09-09T11:48:21;7.32;;;5.80;;
10412;SDS011;5252;42.602;23.386;2022-09-09T11:50:56;8.75;;;5.03;;
10412;SDS011;5252;42.602;23.386;2022-09-09T11:53:24;7.50;;;6.25;;
10412;SDS011;5252;42.602;23.386;2022-09-09T11:56:04;7.78;;;5.88;;
10412;SDS011;5252;42.602;23.386;2022-09-09T11:58:33;11.13;;;6.10;;
10412;SDS011;5252;42.602;23.386;2022-09-09T12:01:14;6.75;;;5.15;;
10412;SDS011;5252;42.602;23.386;2022-09-09T12:03:41;12.90;;;5.57;;
10412;SDS011;5252;42.602;23.386;2022-09-09T12:06:09;9.48;;;5.35;;
10412;SDS011;5252;42.602;23.386;2022-09-09T12:08:40;12.05;;;5.70;;
10412;SDS011;5252;42.602;23.386;2022-09-09T12:11:07;8.15;;;5.55;;
10412;SDS011;5252;42.602;23.386;2022-09-09T12:13:34;11.23;;;6.20;;
10412;SDS011;5252;42.602;23.386;2022-09-09T12:16:01;10.38;;;5.55;;
10412;SDS011;5252;42.602;23.386;2022-09-09T12:18:33;8.15;;;5.85;;
10412;SDS011;5252;42.602;23.386;2022-09-09T12:21:03;8.43;;;5.55;;
10412;SDS011;5252;42.602;23.386;2022-09-09T12:23:35;9.30;;;6.18;;
10412;SDS011;5252;42.602;23.386;2022-09-09T12:28:47;8.00;;;5.97;;
10412;SDS011;5252;42.602;23.386;2022-09-09T12:31:17;14.60;;;5.95;;
10412;SDS011;5252;42.602;23.386;2022-09-09T12:33:48;9.00;;;5.40;;
10412;SDS011;5252;42.602;23.386;2022-09-09T12:36:15;10.43;;;5.53;;
10412;SDS011;5252;42.602;23.386;2022-09-09T12:38:43;11.07;;;5.95;;
10412;SDS011;5252;42.602;23.386;2022-09-09T12:41:17;11.48;;;5.60;;
10412;SDS011;5252;42.602;23.386;2022-09-09T12:43:45;7.28;;;6.00;;
10412;SDS011;5252;42.602;23.386;2022-09-09T12:46:13;8.65;;;5.60;;
10412;SDS011;5252;42.602;23.386;2022-09-09T12:48:42;8.77;;;5.40;;
10412;SDS011;5252;42.602;23.386;2022-09-09T12:51:18;8.80;;;5.82;;
10412;SDS011;5252;42.602;23.386;2022-09-09T12:53:45;10.55;;;6.25;;
10412;SDS011;5252;42.602;23.386;2022-09-09T12:56:18;7.90;;;5.70;;
10412;SDS011;5252;42.602;23.386;2022-09-09T12:58:45;8.65;;;6.00;;
10412;SDS011;5252;42.602;23.386;2022-09-09T13:01:18;7.85;;;5.65;;
10412;SDS011;5252;42.602;23.386;2022-09-09T13:03:46;7.82;;;5.47;;
10412;SDS011;5252;42.602;23.386;2022-09-09T13:06:16;10.60;;;5.78;;
10412;SDS011;5252;42.602;23.386;2022-09-09T13:08:45;6.20;;;5.45;;
10412;SDS011;5252;42.602;23.386;2022-09-09T13:11:13;9.30;;;5.82;;
10412;SDS011;5252;42.602;23.386;2022-09-09T13:13:41;12.65;;;6.13;;
10412;SDS011;5252;42.602;23.386;2022-09-09T13:16:18;9.85;;;5.90;;
10412;SDS011;5252;42.602;23.386;2022-09-09T13:18:45;7.47;;;5.88;;
10412;SDS011;5252;42.602;23.386;2022-09-09T13:21:12;6.18;;;5.40;;
10412;SDS011;5252;42.602;23.386;2022-09-09T13:23:39;8.73;;;5.78;;
10412;SDS011;5252;42.602;23.386;2022-09-09T13:26:19;9.20;;;5.75;;
10412;SDS011;5252;42.602;23.386;2022-09-09T13:28:47;9.77;;;5.53;;
10412;SDS011;5252;42.602;23.386;2022-09-09T13:31:19;7.35;;;5.60;;
10412;SDS011;5252;42.602;23.386;2022-09-09T13:33:46;9.32;;;5.28;;
10412;SDS011;5252;42.602;23.386;2022-09-09T13:36:13;9.85;;;5.15;;
10412;SDS011;5252;42.602;23.386;2022-09-09T13:38:40;7.53;;;5.28;;
10412;SDS011;5252;42.602;23.386;2022-09-09T13:41:21;8.25;;;5.07;;
10412;SDS011;5252;42.602;23.386;2022-09-09T13:43:49;9.80;;;5.68;;
10412;SDS011;5252;42.602;23.386;2022-09-09T13:46:25;10.98;;;5.65;;
10412;SDS011;5252;42.602;23.386;2022-09-09T13:48:56;8.82;;;4.85;;
10412;SDS011;5252;42.602;23.386;2022-09-09T13:51:28;7.25;;;5.15;;
10412;SDS011;5252;42.602;23.386;2022-09-09T13:53:55;7.18;;;5.57;;
10412;SDS011;5252;42.602;23.386;2022-09-09T13:56:24;13.15;;;5.50;;
10412;SDS011;5252;42.602;23.386;2022-09-09T13:58:50;9.02;;;5.70;;
10412;SDS011;5252;42.602;23.386;2022-09-09T14:01:17;10.15;;;5.78;;
10412;SDS011;5252;42.602;23.386;2022-09-09T14:03:43;7.68;;;5.93;;
10412;SDS011;5252;42.602;23.386;2022-09-09T14:06:10;8.77;;;6.10;;
10412;SDS011;5252;42.602;23.386;2022-09-09T14:08:37;12.65;;;6.65;;
10412;SDS011;5252;42.602;23.386;2022-09-09T14:11:03;11.02;;;6.38;;
10412;SDS011;5252;42.602;23.386;2022-09-09T14:13:31;6.78;;;5.50;;
10412;SDS011;5252;42.602;23.386;2022-09-09T14:15:58;9.52;;;5.72;;
10412;SDS011;5252;42.602;23.386;2022-09-09T14:18:24;9.90;;;6.00;;
10412;SDS011;5252;42.602;23.386;2022-09-09T14:20:51;9.27;;;6.25;;
10412;SDS011;5252;42.602;23.386;2022-09-09T14:23:17;13.57;;;6.15;;
10412;SDS011;5252;42.602;23.386;2022-09-09T14:25:44;11.35;;;5.78;;
10412;SDS011;5252;42.602;23.386;2022-09-09T14:28:12;8.18;;;5.93;;
10412;SDS011;5252;42.602;23.386;2022-09-09T14:30:40;9.55;;;5.32;;
10412;SDS011;5252;42.602;23.386;2022-09-09T14:33:08;6.93;;;5.65;;
10412;SDS011;5252;42.602;23.386;2022-09-09T14:35:35;8.27;;;5.40;;
10412;SDS011;5252;42.602;23.386;2022-09-09T14:38:02;10.00;;;6.03;;
10412;SDS011;5252;42.602;23.386;2022-09-09T14:40:29;8.68;;;5.22;;
10412;SDS011;5252;42.602;23.386;2022-09-09T14:42:55;11.25;;;5.70;;
10412;SDS011;5252;42.602;23.386;2022-09-09T14:45:22;7.60;;;5.80;;
10412;SDS011;5252;42.602;23.386;2022-09-09T14:47:51;9.27;;;5.53;;
10412;SDS011;5252;42.602;23.386;2022-09-09T14:50:18;7.65;;;5.45;;
10412;SDS011;5252;42.602;23.386;2022-09-09T14:52:44;9.05;;;5.47;;
10412;SDS011;5252;42.602;23.386;2022-09-09T14:55:11;10.02;;;5.22;;